ESOW/VST METAR and TAF weather

Enter ICAO airport designator
Station Type Date Time Source
ESOW METAR 2024/06/16 09:20 UTC NOAA

ESOW 160920Z AUTO 19007KT 150V240 9999 NCD 19/10 Q1011


Station Type Date Time Source
ESOW Decoded METAR 2024/06/16 09:20 UTC NOAA

Vasteras / Hasslo, Sweden (ESOW) 59-35N 016-38E 31M
Jun 16, 2024 - 05:20 AM EDT / 2024.06.16 0920 UTC
Wind: from the S (190 degrees) at 8 MPH (7 KT) (direction variable):0
Visibility: greater than 7 mile(s):0
Temperature: 66 F (19 C)
Dew Point: 50 F (10 C)
Relative Humidity: 55%
Pressure (altimeter): 29.85 in. Hg (1011 hPa)
ob: ESOW 160920Z AUTO 19007KT 150V240 9999 NCD 19/10 Q1011
cycle: 9

Station Type Date Time Source
ESOW TAF 2021/05/19 03:36 UTC NOAA